createdAt,value
2018-08-17T00:00:11.837Z,0.00
2018-08-17T00:01:12.013Z,0.00
2018-08-17T00:02:12.198Z,0.00
2018-08-17T00:03:12.388Z,0.00
2018-08-17T00:04:12.553Z,0.00
2018-08-17T00:05:12.724Z,0.00
2018-08-17T00:06:12.903Z,0.00
2018-08-17T00:07:13.082Z,0.00
2018-08-17T00:08:13.261Z,0.00
2018-08-17T00:09:13.437Z,0.00
2018-08-17T00:10:13.614Z,0.00
2018-08-17T00:11:13.785Z,0.00
2018-08-17T00:12:13.962Z,0.00
2018-08-17T00:13:14.135Z,0.00
2018-08-17T00:14:14.319Z,0.00
2018-08-17T00:15:14.493Z,0.00
2018-08-17T00:16:14.668Z,0.00
2018-08-17T00:17:14.842Z,0.00
2018-08-17T00:18:15.017Z,0.00
2018-08-17T00:19:15.191Z,0.00
2018-08-17T00:20:15.362Z,0.00
2018-08-17T00:21:15.541Z,0.00
2018-08-17T00:22:15.724Z,0.00
2018-08-17T00:23:15.912Z,0.00
2018-08-17T00:24:16.092Z,0.00
2018-08-17T00:25:16.275Z,0.00
2018-08-17T00:26:16.459Z,0.00
2018-08-17T00:27:16.638Z,0.00
2018-08-17T00:28:16.833Z,0.00
2018-08-17T00:29:17.003Z,0.00
2018-08-17T00:30:17.174Z,0.00
2018-08-17T00:31:17.345Z,0.00
2018-08-17T00:32:17.522Z,0.00
2018-08-17T00:33:17.699Z,0.00
2018-08-17T00:34:17.876Z,0.00
2018-08-17T00:35:18.052Z,0.00
2018-08-17T00:36:18.232Z,0.00
2018-08-17T00:37:18.494Z,0.00
2018-08-17T00:38:18.553Z,0.00
2018-08-17T00:39:18.767Z,0.00
2018-08-17T00:40:18.925Z,0.00
2018-08-17T00:41:19.097Z,0.00
2018-08-17T00:42:19.272Z,0.00
2018-08-17T00:43:19.446Z,0.00
2018-08-17T00:44:19.618Z,0.00
2018-08-17T00:45:19.796Z,0.00
2018-08-17T00:46:19.975Z,0.00
2018-08-17T00:47:20.144Z,0.00
2018-08-17T00:48:20.329Z,0.00
2018-08-17T00:49:20.505Z,0.00
2018-08-17T00:50:20.682Z,0.00
2018-08-17T00:51:20.859Z,0.00
2018-08-17T00:52:21.037Z,0.00
2018-08-17T00:53:21.231Z,0.00
2018-08-17T00:54:21.410Z,0.00
2018-08-17T00:55:21.581Z,0.00
2018-08-17T00:56:21.758Z,0.00
2018-08-17T00:57:21.944Z,0.00
2018-08-17T00:58:22.122Z,0.00
2018-08-17T00:59:22.292Z,0.00
2018-08-17T01:00:22.471Z,0.00
2018-08-17T01:01:22.643Z,0.00
2018-08-17T01:02:22.825Z,0.00
2018-08-17T01:03:23.001Z,0.00
2018-08-17T01:04:23.180Z,0.00
2018-08-17T01:05:23.358Z,0.00
2018-08-17T01:06:23.532Z,0.00
2018-08-17T01:07:23.714Z,0.00
2018-08-17T01:08:23.897Z,0.00
2018-08-17T01:09:24.076Z,0.00
2018-08-17T01:10:24.248Z,0.00
2018-08-17T01:11:24.424Z,0.00
2018-08-17T01:12:24.597Z,0.00
2018-08-17T01:13:24.773Z,0.00
2018-08-17T01:14:24.942Z,0.00
2018-08-17T01:15:25.123Z,0.00
2018-08-17T01:16:25.296Z,0.00
2018-08-17T01:17:25.475Z,0.00
2018-08-17T01:18:25.662Z,0.00
2018-08-17T01:19:25.827Z,0.00
2018-08-17T01:20:25.998Z,0.00
2018-08-17T01:21:26.178Z,0.00
2018-08-17T01:22:26.351Z,0.00
2018-08-17T01:23:26.536Z,0.00
2018-08-17T01:24:26.711Z,0.00
2018-08-17T01:25:26.884Z,0.00
2018-08-17T01:26:27.058Z,0.00
2018-08-17T01:27:27.237Z,0.00
2018-08-17T01:28:27.517Z,0.00
2018-08-17T01:29:27.701Z,0.00
2018-08-17T01:30:27.757Z,0.00
2018-08-17T01:31:27.940Z,0.00
2018-08-17T01:32:28.111Z,0.00
2018-08-17T01:33:28.744Z,0.00
2018-08-17T01:34:28.433Z,0.00
2018-08-17T01:35:28.621Z,0.00
2018-08-17T01:36:28.863Z,0.00
2018-08-17T01:37:28.923Z,0.00
2018-08-17T01:38:29.097Z,0.00
2018-08-17T01:39:29.280Z,0.00
2018-08-17T01:40:29.461Z,0.00
2018-08-17T01:41:29.634Z,0.00
2018-08-17T01:42:29.814Z,0.00
2018-08-17T01:43:30.000Z,0.00
2018-08-17T01:44:30.172Z,0.00
2018-08-17T01:45:30.342Z,0.00
2018-08-17T01:46:30.520Z,0.00
2018-08-17T01:47:30.706Z,0.00
2018-08-17T01:48:30.881Z,0.00
2018-08-17T01:49:31.061Z,0.00
2018-08-17T01:50:31.242Z,0.00
2018-08-17T01:51:31.417Z,0.00
2018-08-17T01:52:31.596Z,0.00
2018-08-17T01:53:32.188Z,0.00
2018-08-17T01:54:32.350Z,0.00
2018-08-17T01:55:32.577Z,0.00
2018-08-17T01:56:32.847Z,0.00
2018-08-17T01:57:32.832Z,0.00
2018-08-17T01:58:33.114Z,0.00
2018-08-17T01:59:33.279Z,0.00
2018-08-17T02:00:33.068Z,0.00
2018-08-17T02:01:33.668Z,0.00
2018-08-17T02:02:33.842Z,0.00
2018-08-17T02:03:33.879Z,0.00
2018-08-17T02:04:34.104Z,0.00
2018-08-17T02:05:34.363Z,0.00
2018-08-17T02:06:34.446Z,0.00
2018-08-17T02:07:34.633Z,0.00
2018-08-17T02:08:34.932Z,0.00
2018-08-17T02:09:35.018Z,0.00
2018-08-17T02:10:35.161Z,0.00
2018-08-17T02:11:35.303Z,0.00
2018-08-17T02:12:35.408Z,0.00
2018-08-17T02:13:35.222Z,0.00
2018-08-17T02:14:35.688Z,0.00
2018-08-17T02:15:35.928Z,0.00
2018-08-17T02:16:35.640Z,0.00
2018-08-17T02:17:35.759Z,0.00
2018-08-17T02:18:36.195Z,0.00
2018-08-17T02:19:36.547Z,0.00
2018-08-17T02:20:36.548Z,0.00
2018-08-17T02:21:36.360Z,0.00
2018-08-17T02:22:36.555Z,0.00
2018-08-17T02:23:36.777Z,0.00
2018-08-17T02:24:36.939Z,0.00
2018-08-17T02:25:37.154Z,0.00
2018-08-17T02:26:37.788Z,0.00
2018-08-17T02:27:38.048Z,0.00
2018-08-17T02:28:38.155Z,0.00
2018-08-17T02:29:38.300Z,0.00
2018-08-17T02:30:38.455Z,0.00
2018-08-17T02:31:38.078Z,0.00
2018-08-17T02:32:38.259Z,0.00
2018-08-17T02:33:38.431Z,0.00
2018-08-17T02:34:38.806Z,0.00
2018-08-17T02:35:38.784Z,0.00
2018-08-17T02:36:39.162Z,0.00
2018-08-17T02:37:39.267Z,0.00
2018-08-17T02:38:39.387Z,0.00
2018-08-17T02:39:39.568Z,0.00
2018-08-17T02:40:39.738Z,0.00
2018-08-17T02:41:39.923Z,0.00
2018-08-17T02:42:40.100Z,0.00
2018-08-17T02:43:40.272Z,0.00
2018-08-17T02:44:40.447Z,0.00
2018-08-17T02:45:40.857Z,0.00
2018-08-17T02:46:40.994Z,0.00
2018-08-17T02:47:42.979Z,0.00
2018-08-17T02:48:41.025Z,0.00
2018-08-17T02:49:41.428Z,0.00
2018-08-17T02:50:41.711Z,0.00
2018-08-17T02:51:41.793Z,0.00
2018-08-17T02:52:41.775Z,0.00
2018-08-17T02:53:41.988Z,0.00
2018-08-17T02:54:42.141Z,0.00
2018-08-17T02:55:42.317Z,0.00
2018-08-17T02:56:42.501Z,0.00
2018-08-17T02:57:42.669Z,0.00
2018-08-17T02:58:42.844Z,0.00
2018-08-17T02:59:43.091Z,0.00
2018-08-17T03:00:43.196Z,0.00
2018-08-17T03:01:43.371Z,0.00
2018-08-17T03:02:43.541Z,0.00
2018-08-17T03:03:43.718Z,0.00
2018-08-17T03:04:43.896Z,0.00
2018-08-17T03:05:44.070Z,0.00
2018-08-17T03:06:44.256Z,0.00
2018-08-17T03:07:44.419Z,0.00
2018-08-17T03:08:44.604Z,0.00
2018-08-17T03:09:44.780Z,0.00
2018-08-17T03:10:44.951Z,0.00
2018-08-17T03:11:45.132Z,0.00
2018-08-17T03:12:45.309Z,0.00
2018-08-17T03:13:45.484Z,0.00
2018-08-17T03:14:45.664Z,0.00
2018-08-17T03:15:45.843Z,0.00
2018-08-17T03:16:46.021Z,0.00
2018-08-17T03:17:46.194Z,0.00
2018-08-17T03:18:46.365Z,0.00
2018-08-17T03:19:46.536Z,0.00
2018-08-17T03:20:46.724Z,0.00
2018-08-17T03:21:46.896Z,0.00
2018-08-17T03:22:47.069Z,0.00
2018-08-17T03:23:47.243Z,0.00
2018-08-17T03:24:47.415Z,0.00
2018-08-17T03:25:47.585Z,0.00
2018-08-17T03:26:47.761Z,0.00
2018-08-17T03:27:47.933Z,0.00
2018-08-17T03:28:48.106Z,0.00
2018-08-17T03:29:48.281Z,0.00
2018-08-17T03:30:48.460Z,0.00
2018-08-17T03:31:48.642Z,0.00
2018-08-17T03:32:48.813Z,0.00
2018-08-17T03:33:48.982Z,0.00
2018-08-17T03:34:49.162Z,0.00
2018-08-17T03:35:49.332Z,0.00
2018-08-17T03:36:49.515Z,0.00
2018-08-17T03:37:49.691Z,0.00
2018-08-17T03:38:49.866Z,0.00
2018-08-17T03:39:50.042Z,0.00
2018-08-17T03:40:50.212Z,0.00
2018-08-17T03:41:50.388Z,0.00
2018-08-17T03:42:50.563Z,0.00
2018-08-17T03:43:50.738Z,0.00
2018-08-17T03:44:50.917Z,0.00
2018-08-17T03:45:51.095Z,0.00
2018-08-17T03:46:51.270Z,0.00
2018-08-17T03:47:51.441Z,0.00
2018-08-17T03:48:51.623Z,0.00
2018-08-17T03:49:54.257Z,0.00
2018-08-17T03:50:55.913Z,0.00
2018-08-17T03:51:56.759Z,0.00
2018-08-17T03:52:55.390Z,0.00
2018-08-17T03:53:54.997Z,0.00
2018-08-17T03:54:57.385Z,0.00
2018-08-17T03:55:57.828Z,0.00
2018-08-17T03:56:55.082Z,0.00
2018-08-17T03:57:56.480Z,0.00
2018-08-17T03:58:57.703Z,0.00
2018-08-17T03:59:58.103Z,0.00
2018-08-17T04:00:55.339Z,0.00
2018-08-17T04:01:57.271Z,0.00
2018-08-17T04:02:58.658Z,0.00
2018-08-17T04:03:54.287Z,0.00
2018-08-17T04:04:58.000Z,0.00
2018-08-17T04:05:57.956Z,0.00
2018-08-17T04:06:57.043Z,0.00
2018-08-17T04:07:58.633Z,0.00
2018-08-17T04:09:00.302Z,0.00
2018-08-17T04:09:58.527Z,0.00
2018-08-17T04:10:59.904Z,0.00
2018-08-17T04:11:58.967Z,0.00
2018-08-17T04:13:00.537Z,0.00
2018-08-17T04:13:55.709Z,0.00
2018-08-17T04:14:55.640Z,0.00
2018-08-17T04:15:56.495Z,0.00
2018-08-17T04:16:55.951Z,0.00
2018-08-17T04:17:56.154Z,0.00
2018-08-17T04:18:56.299Z,5.63
2018-08-17T04:19:56.470Z,5.63
2018-08-17T04:20:57.232Z,5.63
2018-08-17T04:21:57.362Z,5.63
2018-08-17T04:22:57.263Z,5.63
2018-08-17T04:23:57.753Z,5.63
2018-08-17T04:24:58.394Z,5.63
2018-08-17T04:25:57.707Z,5.63
2018-08-17T04:26:58.954Z,5.63
2018-08-17T04:27:57.834Z,5.63
2018-08-17T04:28:57.974Z,5.63
2018-08-17T04:29:58.056Z,5.63
2018-08-17T04:30:58.222Z,11.25
2018-08-17T04:31:58.741Z,11.25
2018-08-17T04:32:58.588Z,11.25
2018-08-17T04:34:00.542Z,11.25
2018-08-17T04:34:58.940Z,11.25
2018-08-17T04:35:59.123Z,11.25
2018-08-17T04:36:59.302Z,11.25
2018-08-17T04:37:59.481Z,11.25
2018-08-17T04:38:59.654Z,11.25
2018-08-17T04:39:59.834Z,11.25
2018-08-17T04:41:00.039Z,11.25
2018-08-17T04:42:00.203Z,11.25
2018-08-17T04:43:00.415Z,11.25
2018-08-17T04:44:00.605Z,16.88
2018-08-17T04:45:00.799Z,16.88
2018-08-17T04:46:00.974Z,16.88
2018-08-17T04:47:01.153Z,16.88
2018-08-17T04:48:01.334Z,16.88
2018-08-17T04:49:01.518Z,16.88
2018-08-17T04:50:01.694Z,16.88
2018-08-17T04:51:01.872Z,22.50
2018-08-17T04:52:02.051Z,22.50
2018-08-17T04:53:02.226Z,22.50
2018-08-17T04:54:02.407Z,22.50
2018-08-17T04:55:02.580Z,22.50
2018-08-17T04:56:02.757Z,22.50
2018-08-17T04:57:02.933Z,28.13
2018-08-17T04:58:03.112Z,28.13
2018-08-17T04:59:03.287Z,28.13
2018-08-17T05:00:03.546Z,33.75
2018-08-17T05:01:03.603Z,33.75
2018-08-17T05:02:03.785Z,33.75
2018-08-17T05:03:03.967Z,33.75
2018-08-17T05:04:04.148Z,33.75
2018-08-17T05:05:04.529Z,33.75
2018-08-17T05:06:04.464Z,33.75
2018-08-17T05:07:04.631Z,33.75
2018-08-17T05:08:04.808Z,33.75
2018-08-17T05:09:04.997Z,33.75
2018-08-17T05:10:05.160Z,33.75
2018-08-17T05:11:05.342Z,33.75
2018-08-17T05:12:05.566Z,33.75
2018-08-17T05:13:05.626Z,33.75
2018-08-17T05:14:05.802Z,28.13
2018-08-17T05:15:05.981Z,28.13
2018-08-17T05:16:06.164Z,28.13
2018-08-17T05:17:06.329Z,33.75
2018-08-17T05:18:06.511Z,39.38
2018-08-17T05:19:06.792Z,39.38
2018-08-17T05:20:06.835Z,39.38
2018-08-17T05:21:07.011Z,45.00
2018-08-17T05:22:07.194Z,45.00
2018-08-17T05:23:07.371Z,39.38
2018-08-17T05:24:07.545Z,39.38
2018-08-17T05:25:07.724Z,39.38
2018-08-17T05:26:07.909Z,39.38
2018-08-17T05:27:08.106Z,33.75
2018-08-17T05:28:08.265Z,33.75
2018-08-17T05:29:08.536Z,33.75
2018-08-17T05:30:08.588Z,33.75
2018-08-17T05:31:08.767Z,33.75
2018-08-17T05:32:08.940Z,33.75
2018-08-17T05:33:09.117Z,33.75
2018-08-17T05:34:09.293Z,33.75
2018-08-17T05:35:09.457Z,33.75
2018-08-17T05:36:09.637Z,33.75
2018-08-17T05:37:09.816Z,33.75
2018-08-17T05:38:09.991Z,33.75
2018-08-17T05:39:10.172Z,33.75
2018-08-17T05:40:10.369Z,33.75
2018-08-17T05:41:10.548Z,39.38
2018-08-17T05:42:10.728Z,39.38
2018-08-17T05:43:10.897Z,39.38
2018-08-17T05:44:11.078Z,39.38
2018-08-17T05:45:11.312Z,45.00
2018-08-17T05:46:11.424Z,45.00
2018-08-17T05:47:11.685Z,45.00
2018-08-17T05:48:11.733Z,50.63
2018-08-17T05:49:11.913Z,56.25
2018-08-17T05:50:12.091Z,56.25
2018-08-17T05:51:12.267Z,67.50
2018-08-17T05:52:12.440Z,61.88
2018-08-17T05:53:12.638Z,56.25
2018-08-17T05:54:12.804Z,56.25
2018-08-17T05:55:12.965Z,61.88
2018-08-17T05:56:13.142Z,67.50
2018-08-17T05:57:13.315Z,67.50
2018-08-17T05:58:13.489Z,73.13
2018-08-17T05:59:13.662Z,73.13
2018-08-17T06:00:15.368Z,73.13
2018-08-17T06:01:18.878Z,73.13
2018-08-17T06:02:14.097Z,78.75
2018-08-17T06:03:15.249Z,78.75
2018-08-17T06:04:14.403Z,90.00
2018-08-17T06:05:14.581Z,73.13
2018-08-17T06:06:14.762Z,73.13
2018-08-17T06:07:14.935Z,73.13
2018-08-17T06:08:15.129Z,84.38
2018-08-17T06:09:15.296Z,90.00
2018-08-17T06:10:15.471Z,84.38
2018-08-17T06:11:15.755Z,123.75
2018-08-17T06:12:15.819Z,123.75
2018-08-17T06:13:16.004Z,118.13
2018-08-17T06:14:16.177Z,118.13
2018-08-17T06:15:16.364Z,101.25
2018-08-17T06:16:16.546Z,101.25
2018-08-17T06:17:16.773Z,129.38
2018-08-17T06:18:16.835Z,112.50
2018-08-17T06:19:17.083Z,95.63
2018-08-17T06:20:17.189Z,90.00
2018-08-17T06:21:17.362Z,135.00
2018-08-17T06:22:17.537Z,140.63
2018-08-17T06:23:17.709Z,140.63
2018-08-17T06:24:17.886Z,140.63
2018-08-17T06:25:18.063Z,140.63
2018-08-17T06:26:18.238Z,140.63
2018-08-17T06:27:18.419Z,140.63
2018-08-17T06:28:18.600Z,140.63
2018-08-17T06:29:18.786Z,135.00
2018-08-17T06:30:18.964Z,135.00
2018-08-17T06:31:19.163Z,106.88
2018-08-17T06:32:19.351Z,135.00
2018-08-17T06:33:19.563Z,129.38
2018-08-17T06:34:19.724Z,101.25
2018-08-17T06:35:19.914Z,146.25
2018-08-17T06:36:20.122Z,146.25
2018-08-17T06:37:20.382Z,146.25
2018-08-17T06:38:20.480Z,146.25
2018-08-17T06:39:20.659Z,151.88
2018-08-17T06:40:20.842Z,157.50
2018-08-17T06:41:21.020Z,157.50
2018-08-17T06:42:21.205Z,151.88
2018-08-17T06:43:21.409Z,146.25
2018-08-17T06:44:21.579Z,146.25
2018-08-17T06:45:21.760Z,146.25
2018-08-17T06:46:21.937Z,140.63
2018-08-17T06:47:22.125Z,140.63
2018-08-17T06:48:22.405Z,140.63
2018-08-17T06:49:22.545Z,135.00
2018-08-17T06:50:22.720Z,140.63
2018-08-17T06:51:22.899Z,140.63
2018-08-17T06:52:23.102Z,140.63
2018-08-17T06:53:23.265Z,140.63
2018-08-17T06:54:23.454Z,140.63
2018-08-17T06:55:23.639Z,140.63
2018-08-17T06:56:23.843Z,140.63
2018-08-17T06:57:24.070Z,146.25
2018-08-17T06:58:25.028Z,146.25
2018-08-17T06:59:24.373Z,112.50
2018-08-17T07:00:24.589Z,140.63
2018-08-17T07:01:25.427Z,146.25
2018-08-17T07:02:24.952Z,151.88
2018-08-17T07:03:25.144Z,151.88
2018-08-17T07:04:25.324Z,146.25
2018-08-17T07:05:25.499Z,140.63
2018-08-17T07:06:25.684Z,129.38
2018-08-17T07:07:25.879Z,157.50
2018-08-17T07:08:26.067Z,151.88
2018-08-17T07:09:26.413Z,163.13
2018-08-17T07:10:26.450Z,163.13
2018-08-17T07:11:26.630Z,174.38
2018-08-17T07:12:26.806Z,191.25
2018-08-17T07:13:26.987Z,191.25
2018-08-17T07:14:27.196Z,168.75
2018-08-17T07:15:27.361Z,174.38
2018-08-17T07:16:27.586Z,163.13
2018-08-17T07:17:27.765Z,174.38
2018-08-17T07:18:27.948Z,191.25
2018-08-17T07:19:28.135Z,219.38
2018-08-17T07:20:28.325Z,241.88
2018-08-17T07:21:28.565Z,258.75
2018-08-17T07:22:28.706Z,264.38
2018-08-17T07:23:28.891Z,230.63
2018-08-17T07:24:29.085Z,230.63
2018-08-17T07:25:29.304Z,230.63
2018-08-17T07:26:29.469Z,213.75
2018-08-17T07:27:29.662Z,185.63
2018-08-17T07:28:30.014Z,213.75
2018-08-17T07:29:30.013Z,208.13
2018-08-17T07:30:30.195Z,225.00
2018-08-17T07:31:30.396Z,230.63
2018-08-17T07:32:30.572Z,213.75
2018-08-17T07:33:30.763Z,191.25
2018-08-17T07:34:30.969Z,174.38
2018-08-17T07:35:31.182Z,174.38
2018-08-17T07:36:31.360Z,174.38
2018-08-17T07:37:31.531Z,180.00
2018-08-17T07:38:31.725Z,213.75
2018-08-17T07:39:31.908Z,180.00
2018-08-17T07:40:32.099Z,174.38
2018-08-17T07:41:32.328Z,174.38
2018-08-17T07:42:32.481Z,191.25
2018-08-17T07:43:32.654Z,196.88
2018-08-17T07:44:32.847Z,196.88
2018-08-17T07:45:33.036Z,191.25
2018-08-17T07:46:33.355Z,191.25
2018-08-17T07:47:33.401Z,191.25
2018-08-17T07:48:33.586Z,225.00
2018-08-17T07:49:33.764Z,236.25
2018-08-17T07:50:33.993Z,236.25
2018-08-17T07:51:34.169Z,241.88
2018-08-17T07:52:34.397Z,258.75
2018-08-17T07:53:34.529Z,258.75
2018-08-17T07:54:34.715Z,270.00
2018-08-17T07:55:34.908Z,286.88
2018-08-17T07:56:35.091Z,292.50
2018-08-17T07:57:35.299Z,286.88
2018-08-17T07:58:35.542Z,241.88
2018-08-17T07:59:35.601Z,208.13
2018-08-17T08:00:35.784Z,196.88
2018-08-17T08:01:35.969Z,196.88
2018-08-17T08:02:36.156Z,208.13
2018-08-17T08:03:36.335Z,225.00
2018-08-17T08:04:36.520Z,275.63
2018-08-17T08:05:36.713Z,337.50
2018-08-17T08:06:37.057Z,393.75
2018-08-17T08:07:37.142Z,461.25
2018-08-17T08:08:37.186Z,371.25
2018-08-17T08:09:37.641Z,534.38
2018-08-17T08:10:37.830Z,708.75
2018-08-17T08:11:37.897Z,877.50
2018-08-17T08:12:37.914Z,866.25
2018-08-17T08:13:38.587Z,388.13
2018-08-17T08:14:38.421Z,455.63
2018-08-17T08:15:38.543Z,663.75
2018-08-17T08:16:38.621Z,1001.25
2018-08-17T08:17:38.832Z,860.63
2018-08-17T08:18:39.090Z,326.25
2018-08-17T08:19:39.227Z,253.13
2018-08-17T08:20:39.419Z,551.25
2018-08-17T08:21:39.624Z,945.00
2018-08-17T08:22:39.839Z,663.75
2018-08-17T08:23:40.030Z,354.38
2018-08-17T08:24:40.188Z,264.38
2018-08-17T08:25:40.500Z,298.13
2018-08-17T08:26:40.574Z,281.25
2018-08-17T08:27:40.872Z,461.25
2018-08-17T08:28:40.924Z,793.13
2018-08-17T08:29:41.161Z,523.13
2018-08-17T08:30:41.319Z,1220.63
2018-08-17T08:31:41.545Z,1147.50
2018-08-17T08:32:41.742Z,1136.25
2018-08-17T08:33:41.931Z,990.00
2018-08-17T08:34:42.117Z,365.63
2018-08-17T08:35:42.304Z,596.25
2018-08-17T08:36:42.488Z,528.75
2018-08-17T08:37:42.669Z,371.25
2018-08-17T08:38:42.850Z,264.38
2018-08-17T08:39:43.049Z,230.63
2018-08-17T08:40:43.225Z,275.63
2018-08-17T08:41:43.434Z,365.63
2018-08-17T08:42:43.621Z,776.25
2018-08-17T08:43:43.796Z,540.00
2018-08-17T08:44:43.977Z,1029.38
2018-08-17T08:45:44.227Z,1164.38
2018-08-17T08:46:48.887Z,1170.00
2018-08-17T08:47:44.962Z,1203.75
2018-08-17T08:48:44.741Z,742.50
2018-08-17T08:49:46.638Z,922.50
2018-08-17T08:50:45.048Z,990.00
2018-08-17T08:51:45.247Z,731.25
2018-08-17T08:52:47.184Z,511.88
2018-08-17T08:53:45.674Z,894.38
2018-08-17T08:54:45.915Z,703.13
2018-08-17T08:55:46.448Z,500.63
2018-08-17T08:56:46.188Z,945.00
2018-08-17T08:57:46.371Z,1175.63
2018-08-17T08:58:46.558Z,1186.88
2018-08-17T08:59:46.744Z,1524.38
2018-08-17T09:00:46.937Z,1608.75
2018-08-17T09:01:47.159Z,1693.13
2018-08-17T09:02:47.313Z,1473.75
2018-08-17T09:03:47.520Z,3195.00
2018-08-17T09:04:47.733Z,1991.25
2018-08-17T09:05:47.924Z,1507.50
2018-08-17T09:06:48.125Z,1963.13
2018-08-17T09:07:48.300Z,1569.38
2018-08-17T09:08:48.509Z,776.25
2018-08-17T09:09:48.732Z,1710.00
2018-08-17T09:10:48.908Z,2081.25
2018-08-17T09:11:49.114Z,489.38
2018-08-17T09:12:49.303Z,466.88
2018-08-17T09:13:49.555Z,669.38
2018-08-17T09:14:49.711Z,1670.63
2018-08-17T09:15:49.888Z,1518.75
2018-08-17T09:16:50.083Z,776.25
2018-08-17T09:17:50.409Z,1333.13
2018-08-17T09:18:50.467Z,1389.38
2018-08-17T09:19:50.648Z,787.50
2018-08-17T09:20:52.341Z,545.63
2018-08-17T09:21:51.012Z,292.50
2018-08-17T09:22:51.213Z,365.63
2018-08-17T09:23:51.403Z,1681.88
2018-08-17T09:24:51.591Z,1912.50
2018-08-17T09:25:51.800Z,1783.13
2018-08-17T09:26:52.090Z,1209.38
2018-08-17T09:27:54.643Z,1771.88
2018-08-17T09:28:53.481Z,1743.75
2018-08-17T09:29:52.656Z,1912.50
2018-08-17T09:30:52.741Z,2216.25
2018-08-17T09:31:55.056Z,2227.50
2018-08-17T09:32:55.979Z,866.25
2018-08-17T09:33:55.886Z,1051.88
2018-08-17T09:34:54.154Z,1901.25
2018-08-17T09:35:53.700Z,1575.00
2018-08-17T09:36:55.573Z,1800.00
2018-08-17T09:37:56.438Z,1732.50
2018-08-17T09:38:56.941Z,1845.00
2018-08-17T09:39:54.488Z,2053.13
2018-08-17T09:40:54.907Z,1996.88
2018-08-17T09:41:54.754Z,2008.13
2018-08-17T09:42:55.123Z,2205.00
2018-08-17T09:43:55.813Z,2070.00
2018-08-17T09:44:58.266Z,2160.00
2018-08-17T09:45:57.433Z,2199.38
2018-08-17T09:46:59.444Z,2143.13
2018-08-17T09:47:55.815Z,2098.13
2018-08-17T09:48:56.109Z,2131.88
2018-08-17T09:50:01.269Z,1991.25
2018-08-17T09:50:58.940Z,1963.13
2018-08-17T09:51:58.056Z,1980.00
2018-08-17T09:52:56.759Z,2036.25
2018-08-17T09:53:57.766Z,2008.13
2018-08-17T09:54:57.355Z,1946.25
2018-08-17T09:55:57.529Z,410.63
2018-08-17T09:56:57.752Z,1372.50
2018-08-17T09:57:57.549Z,2103.75
2018-08-17T09:58:57.880Z,1996.88
2018-08-17T09:59:57.950Z,2019.38
2018-08-17T10:00:58.142Z,1935.00
2018-08-17T10:01:58.541Z,2030.63
2018-08-17T10:02:58.590Z,1912.50
2018-08-17T10:03:58.925Z,1800.00
2018-08-17T10:04:58.832Z,1366.88
2018-08-17T10:05:59.022Z,1473.75
2018-08-17T10:06:59.209Z,1563.75
2018-08-17T10:07:59.407Z,1473.75
2018-08-17T10:08:59.980Z,1501.88
2018-08-17T10:09:59.901Z,1586.25
2018-08-17T10:11:00.467Z,1535.63
2018-08-17T10:12:00.344Z,1445.63
2018-08-17T10:13:00.736Z,1591.88
2018-08-17T10:14:00.961Z,1434.38
2018-08-17T10:15:01.466Z,1372.50
2018-08-17T10:16:01.373Z,1046.25
2018-08-17T10:17:01.436Z,1479.38
2018-08-17T10:18:01.590Z,1462.50
2018-08-17T10:19:01.424Z,1316.25
2018-08-17T10:20:01.840Z,1338.75
2018-08-17T10:21:02.380Z,1271.25
2018-08-17T10:22:02.486Z,1125.00
2018-08-17T10:23:02.447Z,1080.00
2018-08-17T10:24:02.388Z,1153.13
2018-08-17T10:25:02.825Z,1209.38
2018-08-17T10:26:03.031Z,1203.75
2018-08-17T10:27:03.499Z,1113.75
2018-08-17T10:28:03.227Z,1215.00
2018-08-17T10:29:03.409Z,1209.38
2018-08-17T10:30:03.530Z,1035.00
2018-08-17T10:31:03.737Z,1170.00
2018-08-17T10:32:03.850Z,1243.13
2018-08-17T10:33:04.095Z,1203.75
2018-08-17T10:34:04.343Z,1147.50
2018-08-17T10:35:04.388Z,1080.00
2018-08-17T10:36:07.682Z,1074.38
2018-08-17T10:37:04.759Z,1153.13
2018-08-17T10:38:04.947Z,1046.25
2018-08-17T10:39:05.165Z,1085.63
2018-08-17T10:40:05.302Z,905.63
2018-08-17T10:41:05.443Z,517.50
2018-08-17T10:42:05.569Z,416.25
2018-08-17T10:43:05.772Z,455.63
2018-08-17T10:44:06.072Z,579.38
2018-08-17T10:45:06.185Z,686.25
2018-08-17T10:46:06.301Z,708.75
2018-08-17T10:47:06.613Z,883.13
2018-08-17T10:48:06.936Z,956.25
2018-08-17T10:49:07.059Z,995.63
2018-08-17T10:50:07.121Z,1018.13
2018-08-17T10:51:07.266Z,916.88
2018-08-17T10:52:07.394Z,990.00
2018-08-17T10:53:07.540Z,1018.13
2018-08-17T10:54:07.623Z,1040.63
2018-08-17T10:55:07.841Z,995.63
2018-08-17T10:56:08.047Z,1006.88
2018-08-17T10:57:08.252Z,1018.13
2018-08-17T10:58:11.685Z,1029.38
2018-08-17T10:59:10.017Z,995.63
2018-08-17T11:00:10.641Z,1057.50
2018-08-17T11:01:11.935Z,1012.50
2018-08-17T11:02:12.156Z,1057.50
2018-08-17T11:03:11.524Z,1057.50
2018-08-17T11:04:13.833Z,1080.00
2018-08-17T11:05:11.523Z,1068.75
2018-08-17T11:06:12.983Z,1040.63
2018-08-17T11:07:09.913Z,1040.63
2018-08-17T11:08:10.096Z,1023.75
2018-08-17T11:09:10.286Z,1018.13
2018-08-17T11:10:10.476Z,1029.38
2018-08-17T11:11:10.709Z,1063.13
2018-08-17T11:12:10.884Z,1040.63
2018-08-17T11:13:11.089Z,1057.50
2018-08-17T11:14:11.293Z,1051.88
2018-08-17T11:15:11.481Z,1051.88
2018-08-17T11:16:11.669Z,1063.13
2018-08-17T11:17:11.861Z,1080.00
2018-08-17T11:18:12.047Z,1096.88
2018-08-17T11:19:12.244Z,1096.88
2018-08-17T11:20:12.435Z,1108.13
2018-08-17T11:21:12.621Z,1125.00
2018-08-17T11:22:12.827Z,1130.63
2018-08-17T11:23:13.021Z,1119.38
2018-08-17T11:24:13.217Z,1125.00
2018-08-17T11:25:13.404Z,1130.63
2018-08-17T11:26:13.659Z,1141.88
2018-08-17T11:27:13.733Z,1147.50
2018-08-17T11:28:13.928Z,1153.13
2018-08-17T11:29:14.131Z,1141.88
2018-08-17T11:30:14.314Z,1141.88
2018-08-17T11:31:14.553Z,1130.63
2018-08-17T11:32:14.633Z,1125.00
2018-08-17T11:33:14.841Z,1130.63
2018-08-17T11:34:15.196Z,1125.00
2018-08-17T11:35:15.243Z,1113.75
2018-08-17T11:36:15.443Z,1108.13
2018-08-17T11:37:15.728Z,1108.13
2018-08-17T11:38:15.800Z,1108.13
2018-08-17T11:39:15.994Z,1113.75
2018-08-17T11:40:16.398Z,1102.50
2018-08-17T11:41:16.359Z,1085.63
2018-08-17T11:42:16.531Z,1074.38
2018-08-17T11:43:16.762Z,1057.50
2018-08-17T11:44:16.988Z,1051.88
2018-08-17T11:45:17.162Z,1051.88
2018-08-17T11:46:17.345Z,1040.63
2018-08-17T11:47:17.754Z,1040.63
2018-08-17T11:48:17.767Z,1046.25
2018-08-17T11:49:18.157Z,1051.88
2018-08-17T11:50:18.296Z,1035.00
2018-08-17T11:51:18.576Z,1012.50
2018-08-17T11:52:18.672Z,990.00
2018-08-17T11:53:18.812Z,967.50
2018-08-17T11:54:19.003Z,945.00
2018-08-17T11:55:18.974Z,922.50
2018-08-17T11:56:19.247Z,900.00
2018-08-17T11:57:19.441Z,810.00
2018-08-17T11:58:19.529Z,607.50
2018-08-17T11:59:19.872Z,427.50
2018-08-17T12:00:19.833Z,360.00
2018-08-17T12:01:20.037Z,348.75
2018-08-17T12:02:20.957Z,343.13
2018-08-17T12:03:20.375Z,337.50
2018-08-17T12:04:20.571Z,337.50
2018-08-17T12:05:20.769Z,326.25
2018-08-17T12:06:20.973Z,315.00
2018-08-17T12:07:21.148Z,303.75
2018-08-17T12:08:21.439Z,286.88
2018-08-17T12:09:21.532Z,275.63
2018-08-17T12:10:21.741Z,258.75
2018-08-17T12:11:21.991Z,241.88
2018-08-17T12:12:22.065Z,230.63
2018-08-17T12:13:22.247Z,213.75
2018-08-17T12:14:22.433Z,202.50
2018-08-17T12:15:22.630Z,185.63
2018-08-17T12:16:22.806Z,174.38
2018-08-17T12:17:23.007Z,163.13
2018-08-17T12:18:23.196Z,157.50
2018-08-17T12:19:23.477Z,157.50
2018-08-17T12:20:23.551Z,151.88
2018-08-17T12:21:24.021Z,151.88
2018-08-17T12:22:23.904Z,151.88
2018-08-17T12:23:24.093Z,151.88
2018-08-17T12:24:24.443Z,146.25
2018-08-17T12:25:24.397Z,146.25
2018-08-17T12:26:24.713Z,146.25
2018-08-17T12:27:24.786Z,140.63
2018-08-17T12:28:24.987Z,140.63
2018-08-17T12:29:25.197Z,140.63
2018-08-17T12:30:25.398Z,140.63
2018-08-17T12:31:25.584Z,140.63
2018-08-17T12:32:25.801Z,140.63
2018-08-17T12:33:26.020Z,140.63
2018-08-17T12:34:26.227Z,140.63
2018-08-17T12:35:26.530Z,140.63
2018-08-17T12:36:26.864Z,140.63
2018-08-17T12:37:26.731Z,140.63
2018-08-17T12:38:26.791Z,140.63
2018-08-17T12:39:26.984Z,140.63
2018-08-17T12:40:27.177Z,135.00
2018-08-17T12:41:27.414Z,135.00
2018-08-17T12:42:27.597Z,135.00
2018-08-17T12:43:27.839Z,135.00
2018-08-17T12:44:27.935Z,135.00
2018-08-17T12:45:28.130Z,135.00